sensor_id;sensor_type;location;lat;lon;timestamp;P1;durP1;ratioP1;P2;durP2;ratioP2
83362;SDS011;73275;50.882;5.984;2024-03-02T00:00:52;2.33;;;0.70;;
83362;SDS011;73275;50.882;5.984;2024-03-02T00:03:18;1.77;;;0.70;;
83362;SDS011;73275;50.882;5.984;2024-03-02T00:05:43;1.63;;;0.70;;
83362;SDS011;73275;50.882;5.984;2024-03-02T00:08:10;2.35;;;0.60;;
83362;SDS011;73275;50.882;5.984;2024-03-02T00:10:38;2.30;;;0.60;;
83362;SDS011;73275;50.882;5.984;2024-03-02T00:13:07;2.25;;;0.65;;
83362;SDS011;73275;50.882;5.984;2024-03-02T00:17:58;2.60;;;0.60;;
83362;SDS011;73275;50.882;5.984;2024-03-02T00:20:24;2.77;;;0.53;;
83362;SDS011;73275;50.882;5.984;2024-03-02T00:23:08;2.33;;;0.63;;
83362;SDS011;73275;50.882;5.984;2024-03-02T00:25:44;1.23;;;0.50;;
83362;SDS011;73275;50.882;5.984;2024-03-02T00:28:19;1.75;;;0.80;;
83362;SDS011;73275;50.882;5.984;2024-03-02T00:30:51;1.33;;;0.50;;
83362;SDS011;73275;50.882;5.984;2024-03-02T00:33:18;3.15;;;0.57;;
83362;SDS011;73275;50.882;5.984;2024-03-02T00:35:44;2.45;;;0.60;;
83362;SDS011;73275;50.882;5.984;2024-03-02T00:38:10;2.50;;;0.50;;
83362;SDS011;73275;50.882;5.984;2024-03-02T00:40:35;2.97;;;0.97;;
83362;SDS011;73275;50.882;5.984;2024-03-02T00:43:01;2.57;;;0.60;;
83362;SDS011;73275;50.882;5.984;2024-03-02T00:45:26;2.50;;;0.57;;
83362;SDS011;73275;50.882;5.984;2024-03-02T00:47:52;0.93;;;0.40;;
83362;SDS011;73275;50.882;5.984;2024-03-02T00:50:18;1.55;;;0.60;;
83362;SDS011;73275;50.882;5.984;2024-03-02T00:52:43;1.97;;;0.60;;
83362;SDS011;73275;50.882;5.984;2024-03-02T00:55:08;1.60;;;0.60;;
83362;SDS011;73275;50.882;5.984;2024-03-02T00:57:34;1.50;;;0.70;;
83362;SDS011;73275;50.882;5.984;2024-03-02T01:00:02;1.13;;;0.45;;
83362;SDS011;73275;50.882;5.984;2024-03-02T01:02:28;5.40;;;0.88;;
83362;SDS011;73275;50.882;5.984;2024-03-02T01:04:54;5.70;;;0.83;;
83362;SDS011;73275;50.882;5.984;2024-03-02T01:07:19;2.57;;;0.63;;
83362;SDS011;73275;50.882;5.984;2024-03-02T01:09:45;3.42;;;0.77;;
83362;SDS011;73275;50.882;5.984;2024-03-02T01:12:10;3.07;;;0.60;;
83362;SDS011;73275;50.882;5.984;2024-03-02T01:14:35;4.37;;;0.93;;
83362;SDS011;73275;50.882;5.984;2024-03-02T01:17:00;1.13;;;0.70;;
83362;SDS011;73275;50.882;5.984;2024-03-02T01:19:29;1.10;;;0.70;;
83362;SDS011;73275;50.882;5.984;2024-03-02T01:21:54;2.50;;;0.60;;
83362;SDS011;73275;50.882;5.984;2024-03-02T01:24:19;3.93;;;0.80;;
83362;SDS011;73275;50.882;5.984;2024-03-02T01:26:45;1.43;;;0.70;;
83362;SDS011;73275;50.882;5.984;2024-03-02T01:29:10;0.50;;;0.30;;
83362;SDS011;73275;50.882;5.984;2024-03-02T01:31:35;2.87;;;0.40;;
83362;SDS011;73275;50.882;5.984;2024-03-02T01:34:00;0.97;;;0.40;;
83362;SDS011;73275;50.882;5.984;2024-03-02T01:36:26;0.40;;;0.40;;
83362;SDS011;73275;50.882;5.984;2024-03-02T01:38:51;1.80;;;0.30;;
83362;SDS011;73275;50.882;5.984;2024-03-02T01:41:16;0.20;;;0.20;;
83362;SDS011;73275;50.882;5.984;2024-03-02T01:43:41;2.57;;;0.30;;
83362;SDS011;73275;50.882;5.984;2024-03-02T01:46:07;1.43;;;0.30;;
83362;SDS011;73275;50.882;5.984;2024-03-02T01:48:32;0.47;;;0.20;;
83362;SDS011;73275;50.882;5.984;2024-03-02T01:50:57;0.67;;;0.33;;
83362;SDS011;73275;50.882;5.984;2024-03-02T01:53:22;0.77;;;0.30;;
83362;SDS011;73275;50.882;5.984;2024-03-02T01:55:48;0.43;;;0.30;;
83362;SDS011;73275;50.882;5.984;2024-03-02T01:58:13;0.83;;;0.33;;
83362;SDS011;73275;50.882;5.984;2024-03-02T02:00:39;0.70;;;0.40;;
83362;SDS011;73275;50.882;5.984;2024-03-02T02:03:04;0.67;;;0.40;;
83362;SDS011;73275;50.882;5.984;2024-03-02T02:05:29;0.57;;;0.43;;
83362;SDS011;73275;50.882;5.984;2024-03-02T02:07:55;1.13;;;0.30;;
83362;SDS011;73275;50.882;5.984;2024-03-02T02:10:20;0.60;;;0.30;;
83362;SDS011;73275;50.882;5.984;2024-03-02T02:12:46;3.95;;;0.40;;
83362;SDS011;73275;50.882;5.984;2024-03-02T02:17:48;0.50;;;0.40;;
83362;SDS011;73275;50.882;5.984;2024-03-02T02:20:14;0.47;;;0.30;;
83362;SDS011;73275;50.882;5.984;2024-03-02T02:22:39;1.73;;;0.30;;
83362;SDS011;73275;50.882;5.984;2024-03-02T02:25:05;2.40;;;0.43;;
83362;SDS011;73275;50.882;5.984;2024-03-02T02:27:30;0.33;;;0.30;;
83362;SDS011;73275;50.882;5.984;2024-03-02T02:29:55;0.60;;;0.38;;
83362;SDS011;73275;50.882;5.984;2024-03-02T02:32:21;1.07;;;0.40;;
83362;SDS011;73275;50.882;5.984;2024-03-02T02:34:46;1.43;;;0.40;;
83362;SDS011;73275;50.882;5.984;2024-03-02T02:37:11;0.60;;;0.40;;
83362;SDS011;73275;50.882;5.984;2024-03-02T02:39:36;1.10;;;0.50;;
83362;SDS011;73275;50.882;5.984;2024-03-02T02:42:02;0.83;;;0.30;;
83362;SDS011;73275;50.882;5.984;2024-03-02T02:44:28;0.40;;;0.33;;
83362;SDS011;73275;50.882;5.984;2024-03-02T02:46:53;0.60;;;0.40;;
83362;SDS011;73275;50.882;5.984;2024-03-02T02:49:18;0.77;;;0.30;;
83362;SDS011;73275;50.882;5.984;2024-03-02T02:51:43;0.40;;;0.40;;
83362;SDS011;73275;50.882;5.984;2024-03-02T02:54:08;2.67;;;0.60;;
83362;SDS011;73275;50.882;5.984;2024-03-02T02:56:34;0.70;;;0.40;;
83362;SDS011;73275;50.882;5.984;2024-03-02T02:58:59;1.47;;;0.30;;
83362;SDS011;73275;50.882;5.984;2024-03-02T03:01:24;0.80;;;0.33;;
83362;SDS011;73275;50.882;5.984;2024-03-02T03:03:50;1.45;;;0.40;;
83362;SDS011;73275;50.882;5.984;2024-03-02T03:06:15;1.20;;;0.30;;
83362;SDS011;73275;50.882;5.984;2024-03-02T03:08:41;0.50;;;0.40;;
83362;SDS011;73275;50.882;5.984;2024-03-02T03:11:06;0.80;;;0.40;;
83362;SDS011;73275;50.882;5.984;2024-03-02T03:13:32;0.60;;;0.40;;
83362;SDS011;73275;50.882;5.984;2024-03-02T03:15:57;0.43;;;0.20;;
83362;SDS011;73275;50.882;5.984;2024-03-02T03:18:22;0.83;;;0.40;;
83362;SDS011;73275;50.882;5.984;2024-03-02T03:20:48;0.40;;;0.30;;
83362;SDS011;73275;50.882;5.984;2024-03-02T03:23:13;1.07;;;0.43;;
83362;SDS011;73275;50.882;5.984;2024-03-02T03:25:41;0.30;;;0.30;;
83362;SDS011;73275;50.882;5.984;2024-03-02T03:28:07;0.95;;;0.40;;
83362;SDS011;73275;50.882;5.984;2024-03-02T03:30:32;0.85;;;0.40;;
83362;SDS011;73275;50.882;5.984;2024-03-02T03:32:58;0.50;;;0.40;;
83362;SDS011;73275;50.882;5.984;2024-03-02T03:35:23;0.50;;;0.40;;
83362;SDS011;73275;50.882;5.984;2024-03-02T03:37:48;1.63;;;0.50;;
83362;SDS011;73275;50.882;5.984;2024-03-02T03:40:13;1.43;;;0.40;;
83362;SDS011;73275;50.882;5.984;2024-03-02T03:42:39;0.80;;;0.57;;
83362;SDS011;73275;50.882;5.984;2024-03-02T03:45:05;2.20;;;0.50;;
83362;SDS011;73275;50.882;5.984;2024-03-02T03:47:33;0.93;;;0.40;;
83362;SDS011;73275;50.882;5.984;2024-03-02T03:49:58;2.00;;;0.60;;
83362;SDS011;73275;50.882;5.984;2024-03-02T03:52:23;2.00;;;0.60;;
83362;SDS011;73275;50.882;5.984;2024-03-02T03:54:49;1.20;;;0.50;;
83362;SDS011;73275;50.882;5.984;2024-03-02T03:57:14;0.90;;;0.57;;
83362;SDS011;73275;50.882;5.984;2024-03-02T03:59:39;1.50;;;0.80;;
83362;SDS011;73275;50.882;5.984;2024-03-02T04:02:04;1.97;;;0.67;;
83362;SDS011;73275;50.882;5.984;2024-03-02T04:04:30;1.20;;;0.70;;
83362;SDS011;73275;50.882;5.984;2024-03-02T04:06:55;3.37;;;0.90;;
83362;SDS011;73275;50.882;5.984;2024-03-02T04:09:20;0.70;;;0.50;;
83362;SDS011;73275;50.882;5.984;2024-03-02T04:11:45;3.47;;;0.50;;
83362;SDS011;73275;50.882;5.984;2024-03-02T04:14:11;2.03;;;0.50;;
83362;SDS011;73275;50.882;5.984;2024-03-02T04:16:37;2.83;;;0.88;;
83362;SDS011;73275;50.882;5.984;2024-03-02T04:19:02;1.57;;;0.50;;
83362;SDS011;73275;50.882;5.984;2024-03-02T04:21:28;2.40;;;0.60;;
83362;SDS011;73275;50.882;5.984;2024-03-02T04:23:54;3.90;;;0.50;;
83362;SDS011;73275;50.882;5.984;2024-03-02T04:26:23;2.47;;;0.60;;
83362;SDS011;73275;50.882;5.984;2024-03-02T04:28:48;1.10;;;0.60;;
83362;SDS011;73275;50.882;5.984;2024-03-02T04:31:14;1.27;;;0.50;;
83362;SDS011;73275;50.882;5.984;2024-03-02T04:33:40;1.25;;;0.50;;
83362;SDS011;73275;50.882;5.984;2024-03-02T04:36:05;4.97;;;0.87;;
83362;SDS011;73275;50.882;5.984;2024-03-02T04:38:30;1.13;;;0.50;;
83362;SDS011;73275;50.882;5.984;2024-03-02T04:40:57;1.50;;;0.70;;
83362;SDS011;73275;50.882;5.984;2024-03-02T04:43:22;0.87;;;0.50;;
83362;SDS011;73275;50.882;5.984;2024-03-02T04:45:47;1.50;;;0.70;;
83362;SDS011;73275;50.882;5.984;2024-03-02T04:48:13;3.37;;;0.70;;
83362;SDS011;73275;50.882;5.984;2024-03-02T04:50:39;4.13;;;0.50;;
83362;SDS011;73275;50.882;5.984;2024-03-02T04:53:04;1.10;;;0.50;;
83362;SDS011;73275;50.882;5.984;2024-03-02T04:55:29;1.90;;;0.50;;
83362;SDS011;73275;50.882;5.984;2024-03-02T04:58:04;0.68;;;0.40;;
83362;SDS011;73275;50.882;5.984;2024-03-02T05:00:29;2.23;;;0.50;;
83362;SDS011;73275;50.882;5.984;2024-03-02T05:02:54;1.53;;;0.50;;
83362;SDS011;73275;50.882;5.984;2024-03-02T05:05:19;2.63;;;0.50;;
83362;SDS011;73275;50.882;5.984;2024-03-02T05:07:45;0.63;;;0.40;;
83362;SDS011;73275;50.882;5.984;2024-03-02T05:10:10;1.97;;;0.60;;
83362;SDS011;73275;50.882;5.984;2024-03-02T05:12:36;1.30;;;0.40;;
83362;SDS011;73275;50.882;5.984;2024-03-02T05:15:08;0.52;;;0.30;;
83362;SDS011;73275;50.882;5.984;2024-03-02T05:17:38;0.55;;;0.32;;
83362;SDS011;73275;50.882;5.984;2024-03-02T05:20:06;1.00;;;0.47;;
83362;SDS011;73275;50.882;5.984;2024-03-02T05:22:37;0.27;;;0.20;;
83362;SDS011;73275;50.882;5.984;2024-03-02T05:25:02;1.75;;;0.38;;
83362;SDS011;73275;50.882;5.984;2024-03-02T05:27:28;0.60;;;0.40;;
83362;SDS011;73275;50.882;5.984;2024-03-02T05:29:53;1.27;;;0.40;;
83362;SDS011;73275;50.882;5.984;2024-03-02T05:32:19;1.40;;;0.20;;
83362;SDS011;73275;50.882;5.984;2024-03-02T05:34:44;0.40;;;0.33;;
83362;SDS011;73275;50.882;5.984;2024-03-02T05:37:09;1.40;;;0.30;;
83362;SDS011;73275;50.882;5.984;2024-03-02T05:39:34;1.90;;;0.30;;
83362;SDS011;73275;50.882;5.984;2024-03-02T05:42:00;2.10;;;0.50;;
83362;SDS011;73275;50.882;5.984;2024-03-02T05:44:25;0.47;;;0.30;;
83362;SDS011;73275;50.882;5.984;2024-03-02T05:46:50;2.07;;;0.40;;
83362;SDS011;73275;50.882;5.984;2024-03-02T05:49:15;1.10;;;0.40;;
83362;SDS011;73275;50.882;5.984;2024-03-02T05:51:41;3.03;;;0.40;;
83362;SDS011;73275;50.882;5.984;2024-03-02T05:54:06;1.38;;;0.30;;
83362;SDS011;73275;50.882;5.984;2024-03-02T05:56:32;0.40;;;0.40;;
83362;SDS011;73275;50.882;5.984;2024-03-02T05:58:57;0.53;;;0.27;;
83362;SDS011;73275;50.882;5.984;2024-03-02T06:01:34;1.73;;;0.40;;
83362;SDS011;73275;50.882;5.984;2024-03-02T06:03:59;1.53;;;0.40;;
83362;SDS011;73275;50.882;5.984;2024-03-02T06:06:24;0.53;;;0.30;;
83362;SDS011;73275;50.882;5.984;2024-03-02T06:08:50;1.70;;;0.40;;
83362;SDS011;73275;50.882;5.984;2024-03-02T06:11:16;0.30;;;0.30;;
83362;SDS011;73275;50.882;5.984;2024-03-02T06:13:41;0.53;;;0.40;;
83362;SDS011;73275;50.882;5.984;2024-03-02T06:16:06;0.70;;;0.40;;
83362;SDS011;73275;50.882;5.984;2024-03-02T06:18:33;0.40;;;0.30;;
83362;SDS011;73275;50.882;5.984;2024-03-02T06:20:58;0.60;;;0.30;;
83362;SDS011;73275;50.882;5.984;2024-03-02T06:23:23;0.20;;;0.20;;
83362;SDS011;73275;50.882;5.984;2024-03-02T06:25:48;0.77;;;0.40;;
83362;SDS011;73275;50.882;5.984;2024-03-02T06:28:13;0.30;;;0.30;;
83362;SDS011;73275;50.882;5.984;2024-03-02T06:30:40;1.17;;;0.30;;
83362;SDS011;73275;50.882;5.984;2024-03-02T06:33:06;0.97;;;0.33;;
83362;SDS011;73275;50.882;5.984;2024-03-02T06:35:31;2.77;;;0.50;;
83362;SDS011;73275;50.882;5.984;2024-03-02T06:37:56;0.77;;;0.40;;
83362;SDS011;73275;50.882;5.984;2024-03-02T06:40:22;0.60;;;0.30;;
83362;SDS011;73275;50.882;5.984;2024-03-02T06:42:47;0.67;;;0.50;;
83362;SDS011;73275;50.882;5.984;2024-03-02T06:45:12;1.97;;;0.40;;
83362;SDS011;73275;50.882;5.984;2024-03-02T06:47:37;1.17;;;0.30;;
83362;SDS011;73275;50.882;5.984;2024-03-02T06:50:03;1.27;;;0.50;;
83362;SDS011;73275;50.882;5.984;2024-03-02T06:52:28;1.70;;;0.30;;
83362;SDS011;73275;50.882;5.984;2024-03-02T06:54:58;1.75;;;0.73;;
83362;SDS011;73275;50.882;5.984;2024-03-02T06:57:23;3.13;;;0.40;;
83362;SDS011;73275;50.882;5.984;2024-03-02T06:59:49;2.00;;;0.40;;
83362;SDS011;73275;50.882;5.984;2024-03-02T07:02:38;0.88;;;0.40;;
83362;SDS011;73275;50.882;5.984;2024-03-02T07:05:08;1.20;;;0.50;;
83362;SDS011;73275;50.882;5.984;2024-03-02T07:07:33;0.98;;;0.43;;
83362;SDS011;73275;50.882;5.984;2024-03-02T07:10:00;0.87;;;0.30;;
83362;SDS011;73275;50.882;5.984;2024-03-02T07:12:25;1.58;;;0.40;;
83362;SDS011;73275;50.882;5.984;2024-03-02T07:14:51;2.00;;;0.40;;
83362;SDS011;73275;50.882;5.984;2024-03-02T07:17:39;1.85;;;0.50;;
83362;SDS011;73275;50.882;5.984;2024-03-02T07:20:05;2.30;;;0.40;;
83362;SDS011;73275;50.882;5.984;2024-03-02T07:22:31;3.15;;;0.50;;
83362;SDS011;73275;50.882;5.984;2024-03-02T07:24:59;2.00;;;0.43;;
83362;SDS011;73275;50.882;5.984;2024-03-02T07:27:24;0.52;;;0.40;;
83362;SDS011;73275;50.882;5.984;2024-03-02T07:29:50;2.47;;;0.37;;
83362;SDS011;73275;50.882;5.984;2024-03-02T07:32:34;1.42;;;0.50;;
83362;SDS011;73275;50.882;5.984;2024-03-02T07:38:19;1.20;;;0.60;;
83362;SDS011;73275;50.882;5.984;2024-03-02T07:44:03;1.20;;;0.50;;
83362;SDS011;73275;50.882;5.984;2024-03-02T07:58:31;2.20;;;0.90;;
83362;SDS011;73275;50.882;5.984;2024-03-02T08:00:56;2.37;;;0.80;;
83362;SDS011;73275;50.882;5.984;2024-03-02T08:03:26;1.85;;;0.60;;
83362;SDS011;73275;50.882;5.984;2024-03-02T08:05:51;3.37;;;0.70;;
83362;SDS011;73275;50.882;5.984;2024-03-02T08:08:17;1.77;;;0.57;;
83362;SDS011;73275;50.882;5.984;2024-03-02T08:10:42;2.70;;;0.60;;
83362;SDS011;73275;50.882;5.984;2024-03-02T08:13:08;3.80;;;0.50;;
83362;SDS011;73275;50.882;5.984;2024-03-02T08:15:33;2.10;;;0.57;;
83362;SDS011;73275;50.882;5.984;2024-03-02T08:17:58;2.57;;;0.60;;
83362;SDS011;73275;50.882;5.984;2024-03-02T08:20:23;1.70;;;0.63;;
83362;SDS011;73275;50.882;5.984;2024-03-02T08:22:49;1.70;;;0.60;;
83362;SDS011;73275;50.882;5.984;2024-03-02T08:25:14;1.77;;;0.60;;
83362;SDS011;73275;50.882;5.984;2024-03-02T08:27:41;2.10;;;0.50;;
83362;SDS011;73275;50.882;5.984;2024-03-02T08:30:06;5.10;;;0.70;;
83362;SDS011;73275;50.882;5.984;2024-03-02T08:32:33;1.55;;;0.47;;
83362;SDS011;73275;50.882;5.984;2024-03-02T08:34:58;3.23;;;0.30;;
83362;SDS011;73275;50.882;5.984;2024-03-02T08:37:24;2.10;;;0.40;;
83362;SDS011;73275;50.882;5.984;2024-03-02T08:39:49;1.20;;;0.30;;
83362;SDS011;73275;50.882;5.984;2024-03-02T08:42:15;1.63;;;0.60;;
83362;SDS011;73275;50.882;5.984;2024-03-02T08:44:58;3.72;;;0.90;;
83362;SDS011;73275;50.882;5.984;2024-03-02T08:50:35;2.08;;;0.50;;
83362;SDS011;73275;50.882;5.984;2024-03-02T09:03:18;2.30;;;0.50;;
83362;SDS011;73275;50.882;5.984;2024-03-02T09:05:50;1.13;;;0.50;;
83362;SDS011;73275;50.882;5.984;2024-03-02T09:08:18;1.87;;;0.60;;
83362;SDS011;73275;50.882;5.984;2024-03-02T09:10:43;3.45;;;0.80;;
83362;SDS011;73275;50.882;5.984;2024-03-02T09:13:09;4.47;;;0.90;;
83362;SDS011;73275;50.882;5.984;2024-03-02T09:15:34;2.07;;;0.53;;
83362;SDS011;73275;50.882;5.984;2024-03-02T09:18:06;1.92;;;0.50;;
83362;SDS011;73275;50.882;5.984;2024-03-02T09:20:35;2.35;;;0.70;;
83362;SDS011;73275;50.882;5.984;2024-03-02T09:23:14;3.50;;;0.73;;
83362;SDS011;73275;50.882;5.984;2024-03-02T12:18:55;2.45;;;0.80;;
83362;SDS011;73275;50.882;5.984;2024-03-02T12:21:21;3.60;;;0.73;;
83362;SDS011;73275;50.882;5.984;2024-03-02T12:23:46;1.47;;;0.60;;
83362;SDS011;73275;50.882;5.984;2024-03-02T12:26:11;3.03;;;0.87;;
83362;SDS011;73275;50.882;5.984;2024-03-02T12:28:36;2.23;;;0.53;;
83362;SDS011;73275;50.882;5.984;2024-03-02T12:31:02;2.70;;;1.00;;
83362;SDS011;73275;50.882;5.984;2024-03-02T12:33:27;1.93;;;0.70;;
83362;SDS011;73275;50.882;5.984;2024-03-02T12:35:54;2.83;;;0.50;;
83362;SDS011;73275;50.882;5.984;2024-03-02T12:38:19;2.13;;;0.60;;
83362;SDS011;73275;50.882;5.984;2024-03-02T12:40:44;1.70;;;0.70;;
83362;SDS011;73275;50.882;5.984;2024-03-02T12:43:10;3.07;;;0.60;;
83362;SDS011;73275;50.882;5.984;2024-03-02T12:45:36;1.45;;;0.60;;
83362;SDS011;73275;50.882;5.984;2024-03-02T12:48:01;2.37;;;0.50;;
83362;SDS011;73275;50.882;5.984;2024-03-02T12:50:27;2.17;;;0.57;;
83362;SDS011;73275;50.882;5.984;2024-03-02T12:52:53;2.83;;;0.50;;
83362;SDS011;73275;50.882;5.984;2024-03-02T12:55:19;2.05;;;0.63;;
83362;SDS011;73275;50.882;5.984;2024-03-02T12:57:44;2.50;;;0.97;;
83362;SDS011;73275;50.882;5.984;2024-03-02T13:00:10;1.00;;;0.80;;
83362;SDS011;73275;50.882;5.984;2024-03-02T13:02:36;1.88;;;0.90;;
83362;SDS011;73275;50.882;5.984;2024-03-02T13:05:04;2.15;;;0.90;;
83362;SDS011;73275;50.882;5.984;2024-03-02T13:07:31;1.33;;;0.60;;
83362;SDS011;73275;50.882;5.984;2024-03-02T13:09:57;2.22;;;0.70;;
83362;SDS011;73275;50.882;5.984;2024-03-02T13:12:22;4.00;;;0.63;;
83362;SDS011;73275;50.882;5.984;2024-03-02T13:14:49;1.60;;;0.70;;
83362;SDS011;73275;50.882;5.984;2024-03-02T13:17:18;2.65;;;0.55;;
83362;SDS011;73275;50.882;5.984;2024-03-02T13:19:50;3.27;;;0.80;;
83362;SDS011;73275;50.882;5.984;2024-03-02T13:22:15;3.03;;;0.60;;
83362;SDS011;73275;50.882;5.984;2024-03-02T13:24:43;1.97;;;0.60;;
83362;SDS011;73275;50.882;5.984;2024-03-02T13:27:08;2.33;;;0.52;;
83362;SDS011;73275;50.882;5.984;2024-03-02T13:29:34;1.53;;;0.50;;
83362;SDS011;73275;50.882;5.984;2024-03-02T13:31:59;4.00;;;0.77;;
83362;SDS011;73275;50.882;5.984;2024-03-02T13:34:24;1.83;;;0.73;;
83362;SDS011;73275;50.882;5.984;2024-03-02T13:36:49;1.20;;;0.70;;
83362;SDS011;73275;50.882;5.984;2024-03-02T13:39:15;1.83;;;0.60;;
83362;SDS011;73275;50.882;5.984;2024-03-02T13:41:40;2.00;;;0.60;;
83362;SDS011;73275;50.882;5.984;2024-03-02T13:44:06;1.47;;;0.70;;
83362;SDS011;73275;50.882;5.984;2024-03-02T13:46:31;1.10;;;0.77;;
83362;SDS011;73275;50.882;5.984;2024-03-02T13:48:56;1.90;;;0.73;;
83362;SDS011;73275;50.882;5.984;2024-03-02T13:51:22;1.38;;;0.77;;
83362;SDS011;73275;50.882;5.984;2024-03-02T13:53:47;1.47;;;0.70;;
83362;SDS011;73275;50.882;5.984;2024-03-02T13:56:12;2.30;;;0.90;;
83362;SDS011;73275;50.882;5.984;2024-03-02T13:58:37;2.03;;;0.90;;
83362;SDS011;73275;50.882;5.984;2024-03-02T14:01:06;1.20;;;0.77;;
83362;SDS011;73275;50.882;5.984;2024-03-02T14:03:31;2.50;;;1.10;;
83362;SDS011;73275;50.882;5.984;2024-03-02T14:05:56;1.70;;;0.87;;
83362;SDS011;73275;50.882;5.984;2024-03-02T14:08:22;2.55;;;0.80;;
83362;SDS011;73275;50.882;5.984;2024-03-02T14:10:48;2.17;;;0.80;;
83362;SDS011;73275;50.882;5.984;2024-03-02T14:13:13;2.80;;;0.97;;
83362;SDS011;73275;50.882;5.984;2024-03-02T14:15:39;2.28;;;0.90;;
83362;SDS011;73275;50.882;5.984;2024-03-02T14:18:05;1.77;;;0.60;;
83362;SDS011;73275;50.882;5.984;2024-03-02T14:20:31;3.83;;;0.60;;
83362;SDS011;73275;50.882;5.984;2024-03-02T14:22:57;2.40;;;0.80;;
83362;SDS011;73275;50.882;5.984;2024-03-02T14:25:24;2.42;;;0.73;;
83362;SDS011;73275;50.882;5.984;2024-03-02T14:27:49;0.87;;;0.57;;
83362;SDS011;73275;50.882;5.984;2024-03-02T14:30:14;1.77;;;0.60;;
83362;SDS011;73275;50.882;5.984;2024-03-02T14:32:40;2.10;;;0.60;;
83362;SDS011;73275;50.882;5.984;2024-03-02T14:35:05;1.00;;;0.73;;
83362;SDS011;73275;50.882;5.984;2024-03-02T14:37:30;2.23;;;0.53;;
83362;SDS011;73275;50.882;5.984;2024-03-02T14:39:56;1.97;;;0.60;;
83362;SDS011;73275;50.882;5.984;2024-03-02T14:42:21;6.93;;;0.70;;
83362;SDS011;73275;50.882;5.984;2024-03-02T14:44:47;1.57;;;0.50;;
83362;SDS011;73275;50.882;5.984;2024-03-02T14:47:12;1.27;;;0.50;;
83362;SDS011;73275;50.882;5.984;2024-03-02T14:49:37;0.90;;;0.50;;
83362;SDS011;73275;50.882;5.984;2024-03-02T14:52:05;2.47;;;0.45;;
83362;SDS011;73275;50.882;5.984;2024-03-02T14:54:30;1.17;;;0.70;;
83362;SDS011;73275;50.882;5.984;2024-03-02T14:56:56;1.37;;;0.63;;
83362;SDS011;73275;50.882;5.984;2024-03-02T14:59:22;1.13;;;0.60;;
83362;SDS011;73275;50.882;5.984;2024-03-02T15:01:47;2.83;;;0.70;;
83362;SDS011;73275;50.882;5.984;2024-03-02T15:04:13;2.72;;;0.77;;
83362;SDS011;73275;50.882;5.984;2024-03-02T15:06:39;2.70;;;0.57;;
83362;SDS011;73275;50.882;5.984;2024-03-02T15:09:04;1.43;;;0.60;;
83362;SDS011;73275;50.882;5.984;2024-03-02T15:11:29;2.23;;;0.60;;
83362;SDS011;73275;50.882;5.984;2024-03-02T15:13:55;1.40;;;0.50;;
83362;SDS011;73275;50.882;5.984;2024-03-02T15:16:20;1.03;;;0.50;;
83362;SDS011;73275;50.882;5.984;2024-03-02T15:18:45;1.90;;;0.60;;
83362;SDS011;73275;50.882;5.984;2024-03-02T15:21:11;3.30;;;1.00;;
83362;SDS011;73275;50.882;5.984;2024-03-02T15:23:36;2.23;;;0.60;;
83362;SDS011;73275;50.882;5.984;2024-03-02T15:26:01;1.83;;;0.70;;
83362;SDS011;73275;50.882;5.984;2024-03-02T15:28:27;2.13;;;0.50;;
83362;SDS011;73275;50.882;5.984;2024-03-02T15:30:52;1.10;;;0.50;;
83362;SDS011;73275;50.882;5.984;2024-03-02T15:33:17;1.97;;;0.70;;
83362;SDS011;73275;50.882;5.984;2024-03-02T15:35:43;1.43;;;0.60;;
83362;SDS011;73275;50.882;5.984;2024-03-02T15:38:08;1.40;;;0.87;;
83362;SDS011;73275;50.882;5.984;2024-03-02T15:40:36;1.93;;;0.50;;
83362;SDS011;73275;50.882;5.984;2024-03-02T15:43:02;1.30;;;0.73;;
83362;SDS011;73275;50.882;5.984;2024-03-02T15:45:27;1.67;;;0.80;;
83362;SDS011;73275;50.882;5.984;2024-03-02T15:47:58;4.13;;;0.98;;
83362;SDS011;73275;50.882;5.984;2024-03-02T15:50:23;2.10;;;0.90;;
83362;SDS011;73275;50.882;5.984;2024-03-02T15:52:48;1.97;;;0.80;;
83362;SDS011;73275;50.882;5.984;2024-03-02T15:55:14;1.77;;;0.70;;
83362;SDS011;73275;50.882;5.984;2024-03-02T15:57:39;0.93;;;0.60;;
83362;SDS011;73275;50.882;5.984;2024-03-02T16:00:04;1.50;;;0.70;;
83362;SDS011;73275;50.882;5.984;2024-03-02T16:02:30;1.73;;;0.70;;
83362;SDS011;73275;50.882;5.984;2024-03-02T16:04:55;1.17;;;0.73;;
83362;SDS011;73275;50.882;5.984;2024-03-02T16:07:21;1.23;;;0.80;;
83362;SDS011;73275;50.882;5.984;2024-03-02T16:09:46;1.43;;;0.73;;
83362;SDS011;73275;50.882;5.984;2024-03-02T16:12:11;3.20;;;0.97;;
83362;SDS011;73275;50.882;5.984;2024-03-02T16:14:37;2.70;;;0.97;;
83362;SDS011;73275;50.882;5.984;2024-03-02T16:17:02;1.43;;;0.70;;
83362;SDS011;73275;50.882;5.984;2024-03-02T16:19:27;1.50;;;0.63;;
83362;SDS011;73275;50.882;5.984;2024-03-02T16:21:53;1.20;;;0.60;;
83362;SDS011;73275;50.882;5.984;2024-03-02T16:24:18;1.30;;;0.83;;
83362;SDS011;73275;50.882;5.984;2024-03-02T16:26:43;1.60;;;0.70;;
83362;SDS011;73275;50.882;5.984;2024-03-02T16:29:08;2.07;;;0.70;;
83362;SDS011;73275;50.882;5.984;2024-03-02T16:31:34;1.30;;;0.53;;
83362;SDS011;73275;50.882;5.984;2024-03-02T16:33:59;1.17;;;0.60;;
83362;SDS011;73275;50.882;5.984;2024-03-02T16:36:24;1.77;;;0.80;;
83362;SDS011;73275;50.882;5.984;2024-03-02T16:38:53;1.00;;;0.70;;
83362;SDS011;73275;50.882;5.984;2024-03-02T16:41:18;2.07;;;0.70;;
83362;SDS011;73275;50.882;5.984;2024-03-02T16:43:44;2.90;;;0.82;;
83362;SDS011;73275;50.882;5.984;2024-03-02T16:46:10;1.47;;;0.60;;
83362;SDS011;73275;50.882;5.984;2024-03-02T16:48:36;1.25;;;0.60;;
83362;SDS011;73275;50.882;5.984;2024-03-02T16:51:01;3.03;;;0.60;;
83362;SDS011;73275;50.882;5.984;2024-03-02T16:53:26;1.40;;;0.63;;
83362;SDS011;73275;50.882;5.984;2024-03-02T16:55:51;1.63;;;0.70;;
83362;SDS011;73275;50.882;5.984;2024-03-02T16:58:17;5.17;;;0.63;;
83362;SDS011;73275;50.882;5.984;2024-03-02T17:00:44;3.10;;;0.88;;
83362;SDS011;73275;50.882;5.984;2024-03-02T17:03:10;1.40;;;0.60;;
83362;SDS011;73275;50.882;5.984;2024-03-02T17:05:35;1.63;;;0.70;;
83362;SDS011;73275;50.882;5.984;2024-03-02T17:08:00;2.42;;;0.70;;
83362;SDS011;73275;50.882;5.984;2024-03-02T17:10:26;2.20;;;0.83;;
83362;SDS011;73275;50.882;5.984;2024-03-02T17:12:51;1.83;;;0.97;;
83362;SDS011;73275;50.882;5.984;2024-03-02T17:15:18;2.05;;;0.80;;
83362;SDS011;73275;50.882;5.984;2024-03-02T17:17:43;1.73;;;0.60;;
83362;SDS011;73275;50.882;5.984;2024-03-02T17:20:09;1.77;;;0.70;;
83362;SDS011;73275;50.882;5.984;2024-03-02T17:22:35;1.10;;;0.63;;
83362;SDS011;73275;50.882;5.984;2024-03-02T17:25:00;1.95;;;0.90;;
83362;SDS011;73275;50.882;5.984;2024-03-02T17:27:25;1.37;;;0.70;;
83362;SDS011;73275;50.882;5.984;2024-03-02T17:29:57;2.17;;;0.60;;
83362;SDS011;73275;50.882;5.984;2024-03-02T17:32:22;1.73;;;0.70;;
83362;SDS011;73275;50.882;5.984;2024-03-02T17:34:47;1.43;;;0.60;;
83362;SDS011;73275;50.882;5.984;2024-03-02T17:37:12;1.83;;;0.70;;
83362;SDS011;73275;50.882;5.984;2024-03-02T17:39:38;1.97;;;0.70;;
83362;SDS011;73275;50.882;5.984;2024-03-02T17:42:03;1.37;;;0.60;;
83362;SDS011;73275;50.882;5.984;2024-03-02T17:44:28;2.70;;;1.20;;
83362;SDS011;73275;50.882;5.984;2024-03-02T17:46:54;1.80;;;0.90;;
83362;SDS011;73275;50.882;5.984;2024-03-02T17:49:19;2.00;;;0.80;;
83362;SDS011;73275;50.882;5.984;2024-03-02T17:51:44;1.87;;;0.80;;
83362;SDS011;73275;50.882;5.984;2024-03-02T17:54:09;1.90;;;1.00;;
83362;SDS011;73275;50.882;5.984;2024-03-02T17:56:35;1.90;;;0.80;;
83362;SDS011;73275;50.882;5.984;2024-03-02T17:59:00;1.63;;;0.80;;
83362;SDS011;73275;50.882;5.984;2024-03-02T18:01:26;1.50;;;0.70;;
83362;SDS011;73275;50.882;5.984;2024-03-02T18:03:51;1.37;;;0.70;;
83362;SDS011;73275;50.882;5.984;2024-03-02T18:06:16;2.83;;;0.63;;
83362;SDS011;73275;50.882;5.984;2024-03-02T18:08:41;2.43;;;0.90;;
83362;SDS011;73275;50.882;5.984;2024-03-02T18:11:07;2.97;;;0.80;;